Terminal Aerodrome Forecast
Issued by NWS

Current Version | Previous Version | Text Only | Print | Product List | Glossary Off
Versions: 1 2 3 4 5 6 7 8 9 10 11 12 13 14 15 16 17 18 19 20 21 22

000
FTUS41 KILN 170900 AAA
TAFLUK
TAF AMD
KLUK 170942Z 1710/1806 00000KT 6SM BR OVC035
      TEMPO 1710/1712 2SM BR
     FM171300 VRB03KT P6SM SKC
     FM171800 26004KT P6SM SCT035 BKN120
     FM172300 VRB02KT P6SM BKN100=

USA.gov is the U.S. government's official web portal to all federal, state and local government web resources and services.